createdAt,value
2023-02-02T00:00:44.829Z,93433.16
2023-02-02T00:05:55.497Z,93432.16
2023-02-02T00:11:03.460Z,93419.06
2023-02-02T00:16:34.004Z,93419.80
2023-02-02T00:21:41.064Z,93419.92
2023-02-02T00:26:52.396Z,93417.14
2023-02-02T00:32:03.786Z,93416.47
2023-02-02T00:42:34.359Z,93421.17
2023-02-02T00:47:41.365Z,93427.16
2023-02-02T00:52:49.968Z,93404.78
2023-02-02T00:57:57.116Z,93407.80
2023-02-02T01:03:05.005Z,93394.63
2023-02-02T01:08:11.914Z,93393.32
2023-02-02T01:13:19.085Z,93399.67
2023-02-02T01:18:26.282Z,93403.47
2023-02-02T01:23:34.267Z,93423.63
2023-02-02T01:28:42.282Z,93431.59
2023-02-02T01:33:51.870Z,93404.93
2023-02-02T01:38:58.573Z,93387.53
2023-02-02T01:44:08.033Z,93371.74
2023-02-02T01:49:21.073Z,93371.26
2023-02-02T01:54:32.003Z,93382.33
2023-02-02T01:59:39.195Z,93371.26
2023-02-02T02:04:46.259Z,93383.31
2023-02-02T02:09:53.059Z,93383.06
2023-02-02T02:15:17.444Z,93363.63
2023-02-02T02:20:52.978Z,93356.14
2023-02-02T02:26:36.546Z,93364.72
2023-02-02T02:32:28.952Z,93354.77
2023-02-02T02:37:57.755Z,93363.55
2023-02-02T02:43:17.709Z,93351.38
2023-02-02T02:48:24.360Z,93355.19
2023-02-02T02:53:31.023Z,93357.14
2023-02-02T02:58:53.768Z,93352.14
2023-02-02T03:04:25.742Z,93350.16
2023-02-02T03:09:36.342Z,93338.58
2023-02-02T03:14:43.047Z,93331.98
2023-02-02T03:19:49.712Z,93326.44
2023-02-02T03:24:57.212Z,93328.61
2023-02-02T03:30:04.330Z,93318.67
2023-02-02T03:35:11.876Z,93307.53
2023-02-02T03:40:18.979Z,93312.92
2023-02-02T03:45:27.409Z,93300.02
2023-02-02T03:50:34.913Z,93290.70
2023-02-02T03:55:41.961Z,93278.89
2023-02-02T04:00:48.635Z,93289.17
2023-02-02T04:05:55.308Z,93282.50
2023-02-02T04:11:02.111Z,93281.64
2023-02-02T04:16:09.368Z,93277.42
2023-02-02T04:21:16.645Z,93295.98
2023-02-02T04:26:24.968Z,93300.87
2023-02-02T04:31:32.232Z,93309.41
2023-02-02T04:36:39.537Z,93316.41
2023-02-02T04:41:46.270Z,93323.38
2023-02-02T04:46:52.951Z,93338.62
2023-02-02T04:51:59.638Z,93352.35
2023-02-02T04:57:06.273Z,93200.25
2023-02-02T05:02:12.964Z,93362.53
2023-02-02T05:07:19.538Z,93364.13
2023-02-02T05:12:26.219Z,93355.56
2023-02-02T05:17:33.139Z,93357.27
2023-02-02T05:22:39.730Z,93355.96
2023-02-02T05:27:47.313Z,93359.39
2023-02-02T05:32:53.893Z,93350.38
2023-02-02T05:38:00.512Z,93337.73
2023-02-02T05:43:07.193Z,93354.42
2023-02-02T05:48:16.629Z,93366.58
2023-02-02T05:53:23.333Z,93361.34
2023-02-02T05:58:30.158Z,93373.40
2023-02-02T06:03:37.028Z,93384.81
2023-02-02T06:08:43.925Z,93387.88
2023-02-02T06:13:50.959Z,93397.30
2023-02-02T06:18:57.897Z,93416.05
2023-02-02T06:24:04.736Z,93434.31
2023-02-02T06:29:14.774Z,93454.72
2023-02-02T06:34:21.471Z,93478.06
2023-02-02T06:39:30.319Z,93486.55
2023-02-02T06:44:37.286Z,93484.31
2023-02-02T06:49:44.097Z,93496.98
2023-02-02T06:54:50.796Z,93508.21
2023-02-02T06:59:57.554Z,93514.90
2023-02-02T07:05:05.535Z,93520.19
2023-02-02T07:11:14.552Z,93517.50
2023-02-02T07:15:21.356Z,93529.55
2023-02-02T07:20:29.032Z,93552.55
2023-02-02T07:25:35.996Z,93541.17
2023-02-02T07:30:42.764Z,93549.44
2023-02-02T07:35:49.620Z,93543.19
2023-02-02T07:40:56.424Z,93539.28
2023-02-02T07:46:06.785Z,93541.46
2023-02-02T07:51:17.795Z,93557.28
2023-02-02T07:56:28.550Z,93560.40
2023-02-02T08:01:35.313Z,93569.41
2023-02-02T08:06:42.631Z,93576.64
2023-02-02T08:11:49.431Z,93593.73
2023-02-02T08:16:56.160Z,93594.06
2023-02-02T08:22:02.850Z,93592.28
2023-02-02T08:27:11.443Z,93597.18
2023-02-02T08:32:18.230Z,93590.14
2023-02-02T08:37:24.858Z,93602.20
2023-02-02T08:42:31.542Z,93611.05
2023-02-02T08:47:38.265Z,93593.79
2023-02-02T08:52:45.143Z,93630.70
2023-02-02T08:57:51.909Z,93608.22
2023-02-02T09:02:58.710Z,93652.00
2023-02-02T09:08:05.753Z,93630.59
2023-02-02T09:13:13.125Z,93657.23
2023-02-02T09:18:19.987Z,93645.37
2023-02-02T09:23:26.974Z,93656.31
2023-02-02T09:28:34.280Z,93659.00
2023-02-02T09:33:41.479Z,93659.62
2023-02-02T09:38:50.002Z,93667.97
2023-02-02T09:44:03.997Z,93674.03
2023-02-02T09:49:14.744Z,93670.40
2023-02-02T09:54:32.680Z,93677.55
2023-02-02T09:59:43.111Z,93675.88
2023-02-02T10:04:56.955Z,93638.92
2023-02-02T10:10:05.554Z,93674.73
2023-02-02T10:16:01.209Z,93675.52
2023-02-02T10:21:17.192Z,93674.51
2023-02-02T10:26:36.925Z,93679.02
2023-02-02T10:32:19.295Z,93670.20
2023-02-02T10:37:36.376Z,93676.45
2023-02-02T10:42:52.094Z,93682.30
2023-02-02T10:47:59.429Z,93682.43
2023-02-02T10:53:10.598Z,93676.18
2023-02-02T10:58:53.295Z,93679.60
2023-02-02T11:04:17.879Z,93678.50
2023-02-02T11:09:34.108Z,93663.45
2023-02-02T11:14:50.963Z,93661.50
2023-02-02T11:19:57.971Z,93654.79
2023-02-02T11:25:33.175Z,93644.97
2023-02-02T11:30:42.526Z,93643.56
2023-02-02T11:35:58.650Z,93635.89
2023-02-02T11:41:10.450Z,93632.19
2023-02-02T11:46:29.999Z,93631.95
2023-02-02T11:51:37.302Z,93628.17
2023-02-02T11:56:46.644Z,93624.38
2023-02-02T12:01:53.658Z,93629.07
2023-02-02T12:07:00.307Z,93624.30
2023-02-02T12:12:45.916Z,93626.75
2023-02-02T12:18:05.902Z,93627.60
2023-02-02T12:23:25.985Z,93617.54
2023-02-02T12:29:01.035Z,93619.83
2023-02-02T12:34:37.169Z,93610.72
2023-02-02T12:40:06.570Z,93607.83
2023-02-02T12:45:29.361Z,93615.63
2023-02-02T12:51:17.769Z,93614.37
2023-02-02T12:56:43.897Z,93614.31
2023-02-02T13:02:21.880Z,93605.70
2023-02-02T13:07:43.745Z,93609.72
2023-02-02T13:13:00.830Z,93609.22
2023-02-02T13:18:14.780Z,93608.69
2023-02-02T13:23:40.827Z,93610.59
2023-02-02T13:28:57.655Z,93605.72
2023-02-02T13:34:26.379Z,93606.03
2023-02-02T13:39:49.389Z,93609.14
2023-02-02T13:45:03.221Z,93615.24
2023-02-02T13:50:15.378Z,93613.92
2023-02-02T13:56:02.298Z,93623.98
2023-02-02T14:01:12.829Z,93627.86
2023-02-02T14:06:23.187Z,93625.41
2023-02-02T14:11:39.466Z,93629.03
2023-02-02T14:17:02.037Z,93632.83
2023-02-02T14:22:19.386Z,93630.77
2023-02-02T14:27:39.212Z,93631.94
2023-02-02T14:32:46.381Z,93640.00
2023-02-02T14:38:14.071Z,93633.67
2023-02-02T14:43:45.501Z,93643.78
2023-02-02T14:48:59.444Z,93644.69
2023-02-02T14:54:07.276Z,93651.41
2023-02-02T14:59:27.099Z,93659.55
2023-02-02T15:04:34.250Z,93661.56
2023-02-02T15:09:41.669Z,93659.33
2023-02-02T15:15:21.009Z,93660.81
2023-02-02T15:20:41.331Z,93669.20
2023-02-02T15:26:10.583Z,93670.49
2023-02-02T15:31:37.300Z,93679.64
2023-02-02T15:36:46.973Z,93682.70
2023-02-02T15:42:16.058Z,93695.92
2023-02-02T15:47:27.315Z,93698.53
2023-02-02T15:52:36.871Z,93697.81
2023-02-02T15:57:47.061Z,93706.33
2023-02-02T16:03:13.667Z,93710.01
2023-02-02T16:08:35.007Z,93724.30
2023-02-02T16:13:43.496Z,93728.37
2023-02-02T16:18:51.849Z,93734.84
2023-02-02T16:23:59.750Z,93737.95
2023-02-02T16:29:07.208Z,93738.19
2023-02-02T16:34:46.341Z,93746.59
2023-02-02T16:39:53.013Z,93754.55
2023-02-02T16:45:01.590Z,93767.19
2023-02-02T16:50:13.043Z,93763.38
2023-02-02T16:55:21.867Z,93792.94
2023-02-02T17:00:31.742Z,93781.08
2023-02-02T17:05:54.390Z,93790.31
2023-02-02T17:11:28.146Z,93793.35
2023-02-02T17:16:34.980Z,93794.41
2023-02-02T17:21:41.837Z,93810.65
2023-02-02T17:26:48.561Z,93828.44
2023-02-02T17:31:55.289Z,93832.64
2023-02-02T17:37:02.057Z,93844.03
2023-02-02T17:42:12.391Z,93855.24
2023-02-02T17:47:19.048Z,93872.31
2023-02-02T17:52:25.753Z,93879.91
2023-02-02T17:57:32.780Z,93887.53
2023-02-02T18:02:39.744Z,93881.17
2023-02-02T18:07:46.557Z,93897.66
2023-02-02T18:12:53.448Z,93906.68
2023-02-02T18:18:01.763Z,93905.09
2023-02-02T18:23:08.430Z,93921.31
2023-02-02T18:28:17.585Z,93932.30
2023-02-02T18:33:24.610Z,93941.68
2023-02-02T18:38:31.401Z,93954.95
2023-02-02T18:43:38.079Z,93962.67
2023-02-02T18:48:45.987Z,93969.00
2023-02-02T18:53:54.618Z,93985.19
2023-02-02T18:59:02.006Z,93971.61
2023-02-02T19:04:09.248Z,93978.56
2023-02-02T19:09:17.765Z,93981.55
2023-02-02T19:14:32.026Z,93998.45
2023-02-02T19:19:40.516Z,94002.86
2023-02-02T19:24:47.197Z,94003.77
2023-02-02T19:29:59.411Z,94003.46
2023-02-02T19:35:10.662Z,94014.01
2023-02-02T19:40:25.963Z,94019.66
2023-02-02T19:45:35.914Z,94021.56
2023-02-02T19:50:43.198Z,94028.59
2023-02-02T19:55:50.473Z,94033.02
2023-02-02T20:00:59.634Z,94040.16
2023-02-02T20:06:07.088Z,94050.50
2023-02-02T20:11:37.124Z,94047.89
2023-02-02T20:16:48.062Z,94052.11
2023-02-02T20:21:56.196Z,94065.89
2023-02-02T20:27:22.167Z,94065.07
2023-02-02T20:32:43.170Z,94081.77
2023-02-02T20:37:50.161Z,94085.68
2023-02-02T20:42:58.620Z,94090.61
2023-02-02T20:48:05.792Z,94087.60
2023-02-02T20:53:14.197Z,94090.42
2023-02-02T20:58:22.557Z,94083.48
2023-02-02T21:03:29.780Z,94089.22
2023-02-02T21:08:37.066Z,94093.52
2023-02-02T21:13:44.241Z,94095.45
2023-02-02T21:18:51.711Z,94110.72
2023-02-02T21:23:58.880Z,94110.33
2023-02-02T21:29:05.945Z,94116.17
2023-02-02T21:34:13.495Z,94108.60
2023-02-02T21:39:38.408Z,94124.39
2023-02-02T21:45:00.461Z,94132.54
2023-02-02T21:50:29.986Z,94135.55
2023-02-02T21:55:39.120Z,93993.55
2023-02-02T22:00:45.776Z,94153.14
2023-02-02T22:05:53.312Z,94147.61
2023-02-02T22:11:00.246Z,94152.34
2023-02-02T22:16:10.171Z,94156.05
2023-02-02T22:21:21.047Z,94153.04
2023-02-02T22:26:32.703Z,94160.48
2023-02-02T22:31:39.623Z,94167.92
2023-02-02T22:36:46.731Z,94169.09
2023-02-02T22:41:53.908Z,94178.45
2023-02-02T22:47:00.788Z,94177.27
2023-02-02T22:52:08.188Z,94177.34
2023-02-02T22:57:15.261Z,94172.64
2023-02-02T23:02:22.428Z,94174.86
2023-02-02T23:07:29.258Z,94175.53
2023-02-02T23:12:36.828Z,94163.23
2023-02-02T23:17:44.637Z,94170.10
2023-02-02T23:22:52.712Z,94163.64
2023-02-02T23:27:59.729Z,94175.23
2023-02-02T23:33:06.581Z,94171.64
2023-02-02T23:38:14.573Z,94177.47
2023-02-02T23:43:21.412Z,94166.52
2023-02-02T23:48:28.538Z,94164.20
2023-02-02T23:53:35.778Z,94165.91
2023-02-02T23:58:43.052Z,94174.09
